Pagina principală
METAR-TAF:

METAR-TAF

Aeroporturi :

Hattiesburg-Laurel Regional Airport

Hattiesburg-Laurel, Mississippi, Statele Unite ale Americii

Latitudine: 31-28N, longitudine: 089-20W, elevație: 91 m

Observații meteo curente

Raportul a fost făcut în urmă cu 28 de minute, la 22:56 UTC
Vânt 3 kt din direcții variabile
Temperatură 33°C
Umiditate 49%
Presiune 1016 hPa
Vizibilitate: 12.9 km
Nori puțini la o înălțime de 6500 picior

METAR: KPIB 222256Z AUTO VRB03KT 8SM FEW065 33/21 A2999 RMK AO2 SLP152 T03330211 PNO $

Ora: 18:24 (23:24 UTC)

Prognoză

Raportul a fost făcut în urmă cu 6 ore și 4 de minute, la 17:20 UTC
Prognoză valabilă de la 22 ora 18 UTC la 23 ora 18 UTC
Vânt 3 kt din direcții variabile
Vizibilitate: 10 km
Cer senin

TAF: KPIB 221720Z 2218/2318 VRB03KT P6SM SKC

Observații și prognoze meteo pentru peste 4.000 de aeroporturi (rapoarte METAR și TAF).

Stațiile disponibile sunt reprezentate pe hartă prin puncte galbene și roșii.

Țineți indicatorul mouse-ului pe punctul dorit pentru a vedea denumirea stației.

Apoi, faceți clic pentru a vedea observațiile și prognozele meteorologice.

Pentru a schimba harta: Pentru mărire, faceți clic pe butoanele verzi cu cruce neagră; pentru micșorare, pe butonul verde cu o liniuță; pentru hărți învecinate, pe săgețile verzi.


METAR-TAF: